Time;durP1;ratioP1;P1;durP2;ratioP2;P2;SDS_P1;SDS_P2;PMS_P1;PMS_P2;Temp;Humidity;BMP_temperature;BMP_pressure;BME280_temperature;BME280_humidity;BME280_pressure;Samples;Min_cycle;Max_cycle;Signal;HPM_P1;HPM_P2
2023/08/28 00:01:34;;;;;;;4.32;2.10;;;;;;;13.45;89.35;101099.91;5046961;28;20799;-85
2023/08/28 00:04:00;;;;;;;3.65;2.22;;;;;;;13.45;89.04;101094.66;5043659;28;20052;-86
2023/08/28 00:06:25;;;;;;;3.40;2.20;;;;;;;13.43;88.91;101097.34;5044837;28;20391;-85
2023/08/28 00:08:50;;;;;;;3.53;2.20;;;;;;;13.42;88.83;101093.03;5048862;28;20036;-85
2023/08/28 00:11:17;;;;;;;3.30;2.17;;;;;;;13.40;88.76;101092.22;5046397;28;20031;-85
2023/08/28 00:13:42;;;;;;;2.70;2.20;;;;;;;13.39;89.09;101090.47;5043897;28;20044;-85
2023/08/28 00:16:07;;;;;;;3.53;2.33;;;;;;;13.38;89.02;101088.75;5051066;28;20032;-85
2023/08/28 00:18:32;;;;;;;2.97;2.20;;;;;;;13.36;89.54;101087.97;5049257;28;20025;-85
2023/08/28 00:20:58;;;;;;;4.50;2.17;;;;;;;13.34;89.47;101089.75;5046785;28;20029;-85
2023/08/28 00:23:23;;;;;;;3.65;2.30;;;;;;;13.33;89.61;101096.75;5061042;28;20025;-85
2023/08/28 00:25:48;;;;;;;3.53;2.25;;;;;;;13.32;89.99;101084.59;5050696;28;20036;-85
2023/08/28 00:28:14;;;;;;;3.22;2.22;;;;;;;13.32;89.94;101084.59;5048385;28;20055;-85
2023/08/28 00:30:39;;;;;;;3.15;2.30;;;;;;;13.32;90.20;101089.00;5061404;28;20135;-85
2023/08/28 00:33:04;;;;;;;3.83;2.10;;;;;;;13.32;89.98;101089.00;5049012;28;20385;-85
2023/08/28 00:35:29;;;;;;;2.97;2.20;;;;;;;13.32;90.08;101084.59;5044031;28;20037;-85
2023/08/28 00:37:55;;;;;;;3.65;2.30;;;;;;;13.32;90.47;101078.53;5052152;28;20539;-85
2023/08/28 00:40:20;;;;;;;3.75;2.28;;;;;;;13.31;90.17;101082.06;5051970;28;20029;-85
2023/08/28 00:42:45;;;;;;;3.38;2.13;;;;;;;13.31;90.00;101066.38;5050286;28;20479;-85
2023/08/28 00:45:11;;;;;;;3.53;2.20;;;;;;;13.29;90.08;101071.63;5039145;28;20100;-86
2023/08/28 00:47:36;;;;;;;4.32;2.28;;;;;;;13.28;89.98;101075.16;5056256;28;20041;-85
2023/08/28 00:50:03;;;;;;;3.53;2.20;;;;;;;13.27;90.15;101073.44;5055109;28;20035;-85
2023/08/28 00:52:29;;;;;;;3.78;2.30;;;;;;;13.27;89.85;101070.00;5055762;28;20033;-85
2023/08/28 00:54:54;;;;;;;6.38;2.38;;;;;;;13.26;90.17;101070.88;5054766;28;20035;-85
2023/08/28 00:57:20;;;;;;;3.92;2.30;;;;;;;13.24;90.23;101068.31;5057182;28;20124;-85
2023/08/28 00:59:45;;;;;;;3.42;2.38;;;;;;;13.23;90.34;101068.38;5063128;28;20188;-85
2023/08/28 01:02:11;;;;;;;3.17;2.47;;;;;;;13.20;90.45;101070.19;5061576;28;20111;-85
2023/08/28 01:04:36;;;;;;;3.70;2.30;;;;;;;13.18;90.37;101066.75;5051606;28;20028;-85
2023/08/28 01:07:14;;;;;;;4.95;2.40;;;;;;;13.17;90.01;101064.22;5048352;28;20124;-85
2023/08/28 01:09:57;;;;;;;3.58;2.40;;;;;;;13.13;90.28;101058.25;5052697;28;20021;-85
2023/08/28 01:12:41;;;;;;;3.63;2.60;;;;;;;13.14;90.33;101056.47;5051761;28;20029;-85
2023/08/28 01:15:17;;;;;;;3.33;2.50;;;;;;;13.11;90.62;101062.66;5044899;28;20033;-85
2023/08/28 01:17:44;;;;;;;3.83;2.40;;;;;;;13.08;90.93;101065.38;5056676;28;20030;-85
2023/08/28 01:20:12;;;;;;;4.10;2.50;;;;;;;13.06;90.71;101062.78;5051973;28;20033;-85
2023/08/28 01:22:50;;;;;;;2.88;2.35;;;;;;;13.04;90.88;101063.75;5053019;28;20036;-85
2023/08/28 01:25:17;;;;;;;3.15;2.50;;;;;;;13.01;90.72;101067.31;5059149;28;20031;-85
2023/08/28 01:27:43;;;;;;;4.10;2.50;;;;;;;12.98;91.22;101058.75;5060064;28;20415;-85
2023/08/28 01:30:10;;;;;;;3.42;2.38;;;;;;;12.95;91.31;101049.22;5054846;28;20475;-85
2023/08/28 01:32:36;;;;;;;3.10;2.50;;;;;;;12.94;91.36;101046.69;5061353;28;20031;-85
2023/08/28 01:35:04;;;;;;;3.22;2.53;;;;;;;12.90;91.37;101038.94;5058511;28;20033;-85
2023/08/28 01:37:39;;;;;;;4.18;2.58;;;;;;;12.90;91.21;101038.94;5055029;28;20078;-85
2023/08/28 01:40:08;;;;;;;3.22;2.60;;;;;;;12.88;91.00;101048.59;5051641;28;20126;-86
2023/08/28 01:42:35;;;;;;;3.30;2.45;;;;;;;12.87;91.20;101048.66;5051182;28;20033;-85
2023/08/28 01:45:01;;;;;;;3.60;2.83;;;;;;;12.86;91.30;101049.53;5051401;28;20029;-85
2023/08/28 01:47:27;;;;;;;3.80;2.60;;;;;;;12.84;91.29;101040.91;5055254;28;20147;-85
2023/08/28 01:49:53;;;;;;;3.72;2.60;;;;;;;12.81;91.15;101036.63;5051087;28;20108;-85
2023/08/28 01:52:19;;;;;;;4.75;3.00;;;;;;;12.78;91.02;101041.09;5055871;28;20021;-85
2023/08/28 01:54:44;;;;;;;3.50;2.55;;;;;;;12.75;91.15;101037.66;5040609;28;20103;-85
2023/08/28 01:57:10;;;;;;;3.17;2.53;;;;;;;12.74;91.16;101042.94;5056158;28;20083;-85
2023/08/28 01:59:35;;;;;;;4.10;2.65;;;;;;;12.73;91.28;101046.47;5050075;28;20109;-85
2023/08/28 02:02:00;;;;;;;4.00;3.00;;;;;;;12.71;91.35;101045.66;5055661;28;20043;-85
2023/08/28 02:04:26;;;;;;;4.15;2.78;;;;;;;12.70;91.68;101044.81;5051594;28;20032;-85
2023/08/28 02:06:51;;;;;;;4.35;2.78;;;;;;;12.67;91.78;101038.81;5050046;28;20034;-85
2023/08/28 02:09:16;;;;;;;3.33;2.65;;;;;;;12.68;92.16;101037.91;5046839;28;20029;-85
2023/08/28 02:11:42;;;;;;;3.97;2.95;;;;;;;12.67;92.04;101033.59;5051955;28;20533;-85
2023/08/28 02:14:07;;;;;;;4.03;3.05;;;;;;;12.66;92.34;101024.06;5049201;28;20043;-85
2023/08/28 02:16:34;;;;;;;5.88;3.20;;;;;;;12.66;92.31;101024.06;5053075;28;20025;-85
2023/08/28 02:18:59;;;;;;;6.95;3.08;;;;;;;12.67;92.51;101028.38;5053746;28;20353;-85
2023/08/28 02:21:24;;;;;;;3.88;2.90;;;;;;;12.68;92.49;101024.84;5053341;28;20437;-85
2023/08/28 02:23:50;;;;;;;4.57;3.25;;;;;;;12.66;92.48;101027.53;5058972;28;20124;-85
2023/08/28 02:26:15;;;;;;;5.45;3.13;;;;;;;12.66;92.70;101021.44;5053766;28;20052;-85
2023/08/28 02:28:40;;;;;;;4.00;3.13;;;;;;;12.63;92.56;101029.41;5049327;28;20514;-85
2023/08/28 02:31:05;;;;;;;4.10;3.17;;;;;;;12.63;92.39;101032.00;5051026;28;20110;-85
2023/08/28 02:33:31;;;;;;;5.90;3.05;;;;;;;12.59;92.64;101037.31;5044380;28;20506;-85
2023/08/28 02:35:56;;;;;;;4.72;3.60;;;;;;;12.59;92.90;101042.53;5051512;28;20028;-85
2023/08/28 02:38:21;;;;;;;5.43;3.60;;;;;;;12.59;92.91;101033.84;5051713;28;20468;-85
2023/08/28 02:40:46;;;;;;;6.65;3.53;;;;;;;12.58;93.04;101039.94;5054754;28;20503;-86
2023/08/28 02:43:13;;;;;;;5.72;3.13;;;;;;;12.55;93.20;101025.25;5053205;28;20086;-85
2023/08/28 02:45:39;;;;;;;4.93;3.63;;;;;;;12.54;93.40;101038.38;5052488;28;20146;-85
2023/08/28 02:48:05;;;;;;;4.82;3.08;;;;;;;12.51;93.34;101036.69;5048112;28;20079;-85
2023/08/28 02:50:34;;;;;;;5.30;3.38;;;;;;;12.48;93.17;101043.75;5044016;28;20029;-85
2023/08/28 02:53:00;;;;;;;5.32;3.58;;;;;;;12.44;93.38;101037.78;5055669;28;20111;-85
2023/08/28 02:55:25;;;;;;;5.13;3.60;;;;;;;12.43;93.62;101041.28;5040874;28;20107;-85
2023/08/28 02:57:51;;;;;;;6.40;3.70;;;;;;;12.42;94.06;101043.03;5043567;28;20052;-85
2023/08/28 03:00:18;;;;;;;6.65;3.85;;;;;;;12.39;93.92;101040.50;5042307;28;20444;-85
2023/08/28 03:02:43;;;;;;;6.00;3.72;;;;;;;12.38;93.83;101043.19;5045452;28;20021;-85
2023/08/28 03:05:09;;;;;;;5.40;3.67;;;;;;;12.36;94.24;101044.97;5049098;28;20590;-85
2023/08/28 03:07:34;;;;;;;5.28;3.70;;;;;;;12.35;94.14;101043.28;5056796;28;20032;-85
2023/08/28 03:09:59;;;;;;;4.53;3.45;;;;;;;12.33;94.40;101045.06;5057022;28;20065;-85
2023/08/28 03:12:24;;;;;;;5.00;3.70;;;;;;;12.33;94.39;101055.50;5050457;28;20447;-85
2023/08/28 03:14:50;;;;;;;5.47;3.83;;;;;;;12.32;94.43;101061.63;5041036;28;20029;-85
2023/08/28 03:17:15;;;;;;;7.68;3.90;;;;;;;12.28;94.40;101061.72;5051898;28;20025;-85
2023/08/28 03:19:40;;;;;;;6.13;3.80;;;;;;;12.28;94.26;101058.25;5052737;28;20052;-85
2023/08/28 03:22:06;;;;;;;5.70;3.90;;;;;;;12.25;93.02;101059.19;5052576;28;20111;-85
2023/08/28 03:24:31;;;;;;;6.53;3.78;;;;;;;12.22;93.94;101059.28;5049925;28;20487;-85
2023/08/28 03:26:57;;;;;;;6.55;3.90;;;;;;;12.18;94.59;101062.03;5052146;28;20033;-85
2023/08/28 03:29:22;;;;;;;5.55;3.70;;;;;;;12.17;95.06;101058.56;5052355;28;20434;-85
2023/08/28 03:31:47;;;;;;;4.88;3.83;;;;;;;12.16;95.01;101059.44;5045871;28;20032;-85
2023/08/28 03:34:12;;;;;;;5.25;3.70;;;;;;;12.17;94.92;101061.16;5054767;28;20025;-86
2023/08/28 03:36:38;;;;;;;6.63;4.10;;;;;;;12.17;95.47;101063.78;5048968;28;20430;-85
2023/08/28 03:39:03;;;;;;;4.70;3.67;;;;;;;12.17;95.14;101071.59;5055155;28;20054;-85
2023/08/28 03:41:29;;;;;;;6.40;3.78;;;;;;;12.13;95.10;101070.84;5049806;28;20791;-85
2023/08/28 03:43:54;;;;;;;5.80;4.28;;;;;;;12.12;95.01;101086.53;5052934;28;20112;-85
2023/08/28 03:46:19;;;;;;;6.00;4.00;;;;;;;12.09;94.92;101092.69;5070458;28;20106;-85
2023/08/28 03:48:44;;;;;;;5.38;3.97;;;;;;;12.06;95.45;101091.94;5058288;28;20113;-85
2023/08/28 03:51:10;;;;;;;4.93;3.90;;;;;;;12.06;95.45;101089.31;5072566;28;20078;-85
2023/08/28 03:53:35;;;;;;;4.90;3.70;;;;;;;12.04;95.78;101081.50;5048228;28;20104;-85
2023/08/28 03:56:00;;;;;;;6.82;4.28;;;;;;;12.04;95.81;101091.94;5056848;28;20104;-85
2023/08/28 03:58:26;;;;;;;5.38;3.88;;;;;;;12.05;95.68;101098.03;5055319;28;20504;-85
2023/08/28 04:00:53;;;;;;;5.85;4.18;;;;;;;12.03;96.00;101095.47;5053025;28;20028;-85
2023/08/28 04:03:20;;;;;;;5.93;3.88;;;;;;;12.02;95.80;101109.41;5049161;28;20028;-85
2023/08/28 04:05:45;;;;;;;5.35;4.00;;;;;;;12.01;95.91;101101.63;5056003;28;20035;-85
2023/08/28 04:08:11;;;;;;;6.00;3.83;;;;;;;12.01;96.36;101105.09;5047860;28;20029;-85
2023/08/28 04:10:37;;;;;;;6.53;4.15;;;;;;;12.02;96.62;101111.16;5050949;28;20227;-85
2023/08/28 04:13:02;;;;;;;5.05;4.00;;;;;;;12.01;96.46;101114.66;5051146;28;20483;-85
2023/08/28 04:15:28;;;;;;;5.43;4.10;;;;;;;12.01;96.63;101112.91;5046291;28;20036;-85
2023/08/28 04:17:53;;;;;;;5.90;4.20;;;;;;;12.03;96.95;101111.13;5052408;28;20028;-85
2023/08/28 04:20:18;;;;;;;8.48;4.43;;;;;;;12.05;96.98;101113.69;5048955;28;20108;-85
2023/08/28 04:22:44;;;;;;;7.15;4.70;;;;;;;12.08;97.44;101113.59;5053626;28;20067;-85
2023/08/28 04:25:11;;;;;;;6.25;4.25;;;;;;;12.08;97.43;101111.00;5052078;28;20061;-85
2023/08/28 04:27:38;;;;;;;7.50;4.57;;;;;;;12.08;97.71;101109.22;5048812;28;20025;-86
2023/08/28 04:30:07;;;;;;;6.22;4.50;;;;;;;12.09;97.80;101110.94;5048673;28;20029;-85
2023/08/28 04:32:33;;;;;;;7.28;4.25;;;;;;;12.10;97.88;101111.81;5059932;28;20032;-85
2023/08/28 04:34:58;;;;;;;5.60;3.97;;;;;;;12.09;97.98;101110.94;5053450;28;20380;-85
2023/08/28 04:37:24;;;;;;;5.70;4.22;;;;;;;12.11;97.87;101106.53;5047364;28;20036;-85
2023/08/28 04:39:49;;;;;;;6.05;4.47;;;;;;;12.13;97.92;101112.56;5043761;28;20029;-85
2023/08/28 04:42:15;;;;;;;5.85;4.35;;;;;;;12.15;97.90;101115.13;5048508;28;20021;-85
2023/08/28 04:44:41;;;;;;;5.50;4.00;;;;;;;12.16;97.97;101110.78;5052747;28;20024;-85
2023/08/28 04:47:06;;;;;;;6.90;4.10;;;;;;;12.16;97.89;101111.63;5051568;28;20032;-85
2023/08/28 04:49:31;;;;;;;8.55;4.35;;;;;;;12.17;97.97;101105.50;5061920;28;20024;-85
2023/08/28 04:51:56;;;;;;;5.85;4.22;;;;;;;12.18;97.77;101096.78;5050151;28;20046;-85
2023/08/28 04:54:22;;;;;;;6.95;4.15;;;;;;;12.19;97.79;101095.88;5054242;28;20132;-85
2023/08/28 04:56:47;;;;;;;5.60;3.85;;;;;;;12.20;97.73;101094.16;5056990;28;20455;-85
2023/08/28 04:59:12;;;;;;;5.85;4.32;;;;;;;12.21;97.74;101088.88;5051111;28;20032;-85
2023/08/28 05:01:37;;;;;;;5.95;4.13;;;;;;;12.20;97.84;101087.16;5046509;28;20447;-85
2023/08/28 05:04:04;;;;;;;5.25;4.10;;;;;;;12.20;97.02;101084.56;5042197;28;20052;-85
2023/08/28 05:06:29;;;;;;;7.15;3.97;;;;;;;12.19;96.23;101088.06;5052790;28;20032;-85
2023/08/28 05:08:55;;;;;;;6.43;4.28;;;;;;;12.15;96.57;101089.03;5050037;28;20037;-86
2023/08/28 05:11:20;;;;;;;5.82;4.28;;;;;;;12.13;97.11;101085.63;5046338;28;20079;-85
2023/08/28 05:13:45;;;;;;;6.63;4.00;;;;;;;12.17;97.42;101086.41;5053339;28;20502;-85
2023/08/28 05:16:11;;;;;;;7.63;4.40;;;;;;;12.17;97.41;101083.81;5049368;28;20025;-85
2023/08/28 05:18:36;;;;;;;7.88;4.47;;;;;;;12.19;97.76;101085.47;5050547;28;20055;-86
2023/08/28 05:21:01;;;;;;;8.10;4.72;;;;;;;12.21;97.62;101086.28;5049790;28;20075;-86
2023/08/28 05:23:26;;;;;;;6.45;4.50;;;;;;;12.23;98.07;101086.22;5051177;28;20464;-86
2023/08/28 05:25:53;;;;;;;6.90;4.47;;;;;;;12.26;98.15;101083.53;5055517;28;20043;-85
2023/08/28 05:28:18;;;;;;;5.40;4.28;;;;;;;12.29;98.31;101086.91;5051612;28;20029;-86
2023/08/28 05:30:43;;;;;;;7.32;4.68;;;;;;;12.32;98.87;101087.69;5046770;28;20511;-85
2023/08/28 05:33:08;;;;;;;6.78;5.10;;;;;;;12.35;98.59;101079.78;5044150;28;20029;-85
2023/08/28 05:35:34;;;;;;;6.93;4.80;;;;;;;12.38;98.40;101084.94;5044994;28;20031;-85
2023/08/28 05:37:59;;;;;;;6.00;4.63;;;;;;;12.40;98.55;101083.13;5050480;28;20020;-86
2023/08/28 05:40:24;;;;;;;7.22;5.00;;;;;;;12.44;98.67;101089.97;5048964;28;20040;-86
2023/08/28 05:42:50;;;;;;;7.78;5.00;;;;;;;12.48;98.78;101086.34;5041621;28;20129;-86
2023/08/28 05:45:15;;;;;;;7.05;5.03;;;;;;;12.52;98.33;101087.97;5050840;28;20025;-86
2023/08/28 05:47:41;;;;;;;9.02;4.97;;;;;;;12.56;98.38;101086.13;5052465;28;20029;-86
2023/08/28 05:50:07;;;;;;;6.40;4.75;;;;;;;12.59;98.61;101089.50;5045226;28;20051;-86
2023/08/28 05:52:32;;;;;;;6.53;4.88;;;;;;;12.64;98.45;101085.91;5056675;28;20433;-86
2023/08/28 05:54:57;;;;;;;6.68;4.82;;;;;;;12.69;98.55;101097.06;5053271;28;20107;-86
2023/08/28 05:57:23;;;;;;;6.78;4.80;;;;;;;12.73;98.54;101090.84;5055001;28;20094;-86
2023/08/28 05:59:50;;;;;;;8.02;5.65;;;;;;;12.79;98.58;101106.31;5053415;28;20067;-86
2023/08/28 06:02:15;;;;;;;8.88;5.13;;;;;;;12.84;98.41;101103.56;5048488;28;20033;-86
2023/08/28 06:04:45;;;;;;;8.80;5.75;;;;;;;12.89;98.39;101093.84;5050082;28;20100;-86
2023/08/28 06:07:10;;;;;;;8.45;5.97;;;;;;;12.92;98.38;101085.03;5048071;28;20056;-86
2023/08/28 06:09:35;;;;;;;8.45;5.90;;;;;;;12.96;98.37;101087.50;5044356;28;20033;-86
2023/08/28 06:12:00;;;;;;;9.93;6.05;;;;;;;13.00;98.52;101089.13;5049656;28;20040;-86
2023/08/28 06:14:26;;;;;;;8.55;6.05;;;;;;;13.05;98.56;101091.59;5048045;28;20028;-85
2023/08/28 06:16:51;;;;;;;9.60;6.32;;;;;;;13.09;98.74;101082.75;5051718;28;20528;-86
2023/08/28 06:19:16;;;;;;;7.47;6.18;;;;;;;13.14;98.69;101085.19;5048187;28;20039;-85
2023/08/28 06:21:44;;;;;;;8.00;6.15;;;;;;;13.16;98.36;101076.41;5050697;28;20043;-85
2023/08/28 06:24:10;;;;;;;8.35;6.78;;;;;;;13.21;98.16;101087.56;5048829;28;20110;-85
2023/08/28 06:26:35;;;;;;;12.82;7.13;;;;;;;13.26;97.76;101089.19;5048620;28;20056;-86
2023/08/28 06:29:03;;;;;;;9.82;6.78;;;;;;;13.28;98.02;101095.22;5047828;28;20032;-85
2023/08/28 06:31:28;;;;;;;10.52;6.68;;;;;;;13.30;98.08;101086.41;5049256;28;20037;-85
2023/08/28 06:33:53;;;;;;;9.80;6.32;;;;;;;13.38;98.51;101103.59;5045675;28;20401;-85
2023/08/28 06:36:18;;;;;;;9.60;7.00;;;;;;;13.41;98.68;101101.75;5050033;28;20103;-85
2023/08/28 06:38:44;;;;;;;8.85;6.57;;;;;;;13.46;99.14;101092.03;5046955;28;20039;-85
2023/08/28 06:41:09;;;;;;;8.00;6.93;;;;;;;13.53;100.00;101094.41;5051561;28;20500;-86
2023/08/28 06:43:34;;;;;;;11.70;7.03;;;;;;;13.56;100.00;101083.84;5050257;28;20048;-86
2023/08/28 06:45:59;;;;;;;11.25;6.93;;;;;;;13.59;100.00;101086.38;5053181;28;20543;-85
2023/08/28 06:48:25;;;;;;;7.88;6.70;;;;;;;13.63;100.00;101095.81;5052523;28;20029;-85
2023/08/28 06:50:51;;;;;;;8.95;7.03;;;;;;;13.67;100.00;101092.16;5052501;28;20032;-86
2023/08/28 06:53:17;;;;;;;8.68;6.95;;;;;;;13.71;100.00;101090.31;5051724;28;20388;-86
2023/08/28 06:55:42;;;;;;;9.35;6.80;;;;;;;13.75;100.00;101100.63;5037994;28;20032;-86
2023/08/28 06:58:08;;;;;;;9.48;7.03;;;;;;;13.80;100.00;101106.53;5052055;28;20049;-86
2023/08/28 07:00:33;;;;;;;9.20;6.93;;;;;;;13.86;100.00;101110.69;5053177;28;20487;-86
2023/08/28 07:02:58;;;;;;;9.38;6.97;;;;;;;13.90;100.00;101114.06;5053290;28;20086;-86
2023/08/28 07:05:24;;;;;;;9.88;7.20;;;;;;;13.94;100.00;101115.66;5038234;28;20029;-86
2023/08/28 07:07:49;;;;;;;8.65;6.70;;;;;;;14.00;100.00;101123.28;5050190;28;20028;-85
2023/08/28 07:10:14;;;;;;;11.07;7.03;;;;;;;14.04;100.00;101127.50;5053830;28;20116;-85
2023/08/28 07:12:39;;;;;;;8.85;7.45;;;;;;;14.09;100.00;101122.13;5046311;28;20424;-85
2023/08/28 07:15:25;;;;;;;10.73;7.90;;;;;;;14.14;100.00;101129.78;5053355;28;20032;-86
2023/08/28 07:17:50;;;;;;;9.65;7.50;;;;;;;14.21;100.00;101126.91;5038143;28;20842;-86
2023/08/28 07:20:15;;;;;;;11.52;7.85;;;;;;;14.27;100.00;101120.56;5048797;28;20112;-85
2023/08/28 07:22:41;;;;;;;9.20;7.47;;;;;;;14.32;100.00;101123.03;5053718;28;20472;-87
2023/08/28 07:25:07;;;;;;;9.45;7.10;;;;;;;14.35;100.00;101125.53;5051889;28;20037;-88
2023/08/28 07:27:32;;;;;;;16.20;7.95;;;;;;;14.39;100.00;101129.75;5051775;28;20033;-85
2023/08/28 07:29:58;;;;;;;10.18;7.63;;;;;;;14.45;100.00;101118.19;5056248;28;20024;-85
2023/08/28 07:32:24;;;;;;;9.63;7.72;;;;;;;14.51;100.00;101123.22;5058514;28;20078;-89
2023/08/28 07:34:49;;;;;;;9.57;7.82;;;;;;;14.57;100.00;101120.34;5056531;28;20043;-89
2023/08/28 07:37:14;;;;;;;10.80;8.13;;;;;;;14.60;100.00;101117.59;5057422;28;20078;-88
2023/08/28 07:39:40;;;;;;;9.02;8.07;;;;;;;14.64;100.00;101116.59;5054169;28;20545;-86
2023/08/28 07:42:07;;;;;;;9.15;7.93;;;;;;;14.68;100.00;101115.59;5052587;28;20033;-90
2023/08/28 07:44:32;;;;;;;10.13;7.60;;;;;;;14.72;100.00;101111.06;5050177;28;20713;-86
2023/08/28 07:46:58;;;;;;;8.75;7.53;;;;;;;14.77;100.00;101117.00;5052675;28;20029;-86
2023/08/28 07:49:23;;;;;;;8.18;6.35;;;;;;;14.80;100.00;101121.25;5045465;28;21006;-87
2023/08/28 07:51:48;;;;;;;7.85;6.40;;;;;;;14.84;100.00;101121.06;5047672;28;20060;-87
2023/08/28 07:54:14;;;;;;;7.35;5.80;;;;;;;14.87;100.00;101117.47;5050288;28;20499;-87
2023/08/28 07:56:39;;;;;;;8.20;5.75;;;;;;;14.92;100.00;101115.53;5052244;28;20044;-87
2023/08/28 07:59:04;;;;;;;5.82;4.93;;;;;;;14.96;98.56;101104.00;5050471;28;20468;-87
2023/08/28 08:01:30;;;;;;;6.43;4.57;;;;;;;15.00;97.62;101110.84;5054913;28;20411;-88
2023/08/28 08:03:56;;;;;;;5.78;4.65;;;;;;;15.06;98.19;101108.88;5056169;28;20066;-87
2023/08/28 08:06:22;;;;;;;5.93;4.55;;;;;;;15.13;99.07;101107.72;5060073;28;20608;-87
2023/08/28 08:08:48;;;;;;;5.65;4.47;;;;;;;15.18;98.60;101111.84;5062982;28;20051;-86
2023/08/28 08:11:13;;;;;;;4.13;3.00;;;;;;;15.23;96.53;101124.75;5055970;28;20040;-87
2023/08/28 08:13:39;;;;;;;3.15;2.20;;;;;;;15.26;93.69;101122.03;5056107;28;20028;-86
2023/08/28 08:16:04;;;;;;;3.28;2.35;;;;;;;15.30;93.10;101118.38;5055838;28;20028;-87
2023/08/28 08:18:30;;;;;;;4.30;2.80;;;;;;;15.33;92.53;101118.25;5053822;28;20433;-86
2023/08/28 08:20:55;;;;;;;4.85;3.05;;;;;;;15.39;92.63;101116.25;5053847;28;20478;-89
2023/08/28 08:23:21;;;;;;;4.38;3.00;;;;;;;15.46;92.77;101122.97;5050454;28;20119;-85
2023/08/28 08:25:46;;;;;;;4.63;2.90;;;;;;;15.54;91.82;101126.13;5049771;28;20036;-87
2023/08/28 08:28:12;;;;;;;4.45;2.92;;;;;;;15.65;91.87;101116.97;5052176;28;20147;-87
2023/08/28 08:30:37;;;;;;;2.35;1.80;;;;;;;15.71;89.86;101122.78;5051435;28;21544;-87
2023/08/28 08:33:03;;;;;;;3.75;2.00;;;;;;;15.77;89.02;101122.53;5051386;28;20036;-86
2023/08/28 08:35:28;;;;;;;2.63;1.60;;;;;;;15.90;91.38;101122.88;5055761;28;20408;-86
2023/08/28 08:37:53;;;;;;;2.35;1.20;;;;;;;16.04;91.05;101126.69;5054263;28;20017;-86
2023/08/28 08:40:24;;;;;;;3.08;1.60;;;;;;;16.12;89.81;101129.78;5051896;28;20126;-87
2023/08/28 08:42:49;;;;;;;2.73;1.60;;;;;;;16.20;88.93;101127.69;5054528;28;20040;-86
2023/08/28 08:45:14;;;;;;;2.10;1.40;;;;;;;16.30;90.57;101125.50;5057582;28;20025;-86
2023/08/28 08:47:41;;;;;;;2.58;1.75;;;;;;;16.36;90.00;101134.88;5050166;28;20108;-88
2023/08/28 08:50:08;;;;;;;1.70;1.30;;;;;;;16.40;88.81;101133.78;5050882;28;20032;-84
2023/08/28 08:52:38;;;;;;;2.15;1.60;;;;;;;16.44;87.66;101131.91;5048684;28;20032;-89
2023/08/28 08:55:11;;;;;;;1.75;1.50;;;;;;;16.50;88.67;101131.59;5066684;28;20024;-89
2023/08/28 08:57:42;;;;;;;1.98;1.63;;;;;;;16.53;87.93;101131.47;5045795;28;20575;-87
2023/08/28 09:00:13;;;;;;;4.15;1.75;;;;;;;16.56;87.72;101133.13;5049001;28;20043;-83
2023/08/28 09:02:40;;;;;;;2.35;1.80;;;;;;;16.62;88.30;101131.06;5047855;28;20047;-86
2023/08/28 09:05:06;;;;;;;3.53;1.85;;;;;;;16.68;86.60;101127.28;5052222;28;20035;-86
2023/08/28 09:07:32;;;;;;;3.28;1.83;;;;;;;16.76;86.60;101121.66;5052870;28;20024;-96
2023/08/28 09:10:00;;;;;;;2.10;1.67;;;;;;;16.81;83.59;101128.41;5052782;28;20079;-92
2023/08/28 09:12:25;;;;;;;2.55;1.80;;;;;;;16.90;85.32;101127.09;5048478;28;20091;-92
2023/08/28 09:14:51;;;;;;;2.53;1.92;;;;;;;16.99;83.59;101131.09;5050837;28;20038;-96
2023/08/28 09:17:16;;;;;;;2.40;1.90;;;;;;;17.09;85.21;101119.22;5059985;28;20021;-94
2023/08/28 09:19:44;;;;;;;2.13;1.50;;;;;;;17.16;82.49;101124.19;5055801;28;20078;-94
2023/08/28 09:22:10;;;;;;;2.70;1.67;;;;;;;17.18;82.47;101125.78;5061635;28;20025;-96
2023/08/28 09:24:37;;;;;;;3.03;1.63;;;;;;;17.19;82.18;101124.88;5073026;28;20169;-96
2023/08/28 09:27:03;;;;;;;4.28;1.70;;;;;;;17.19;81.95;101124.03;5058733;28;20024;-96
2023/08/28 09:29:29;;;;;;;1.70;1.50;;;;;;;17.18;81.85;101122.31;5054277;28;20044;-92
2023/08/28 09:32:04;;;;;;;3.33;1.80;;;;;;;17.14;81.40;101122.47;5050469;28;20621;-95
2023/08/28 09:34:38;;;;;;;1.63;1.50;;;;;;;17.13;81.43;101128.66;5052075;28;20452;-93
2023/08/28 09:37:06;;;;;;;1.92;1.65;;;;;;;17.10;80.00;101130.59;5050920;28;20025;-94
2023/08/28 09:39:32;;;;;;;2.95;1.90;;;;;;;17.06;82.31;101131.66;5047656;28;20042;-95
2023/08/28 09:41:57;;;;;;;4.13;1.90;;;;;;;17.03;81.10;101130.03;5050024;28;20488;-95
2023/08/28 09:44:25;;;;;;;4.45;2.17;;;;;;;17.01;81.61;101131.88;5051373;28;20032;-94
2023/08/28 09:46:51;;;;;;;5.18;2.67;;;;;;;17.01;84.14;101131.03;5048477;28;20242;-92
2023/08/28 09:49:16;;;;;;;5.40;3.40;;;;;;;16.99;84.15;101133.72;5048597;28;20112;-94
2023/08/28 09:51:48;;;;;;;5.63;3.70;;;;;;;16.99;84.04;101134.56;5050332;28;20048;-92
2023/08/28 09:54:15;;;;;;;5.47;3.40;;;;;;;17.01;83.99;101137.13;5050475;28;20060;-91
2023/08/28 09:56:41;;;;;;;3.45;3.05;;;;;;;17.03;83.33;101142.31;4986042;28;1904564;-87
2023/08/28 09:59:09;;;;;;;3.80;3.20;;;;;;;17.05;83.00;101146.59;5051892;28;20037;-88
2023/08/28 10:01:36;;;;;;;5.00;3.45;;;;;;;17.10;83.11;101139.31;5051160;28;20150;-89
2023/08/28 10:04:06;;;;;;;3.97;3.28;;;;;;;17.19;83.90;101145.06;5050308;28;20677;-89
2023/08/28 10:06:38;;;;;;;3.90;3.20;;;;;;;17.25;83.76;101136.88;5052288;28;20024;-88
2023/08/28 10:09:06;;;;;;;4.45;3.30;;;;;;;17.30;83.23;101145.38;5052971;28;20058;-87
2023/08/28 10:11:37;;;;;;;3.50;3.00;;;;;;;17.35;82.66;101146.00;5051456;28;20036;-87
2023/08/28 10:14:04;;;;;;;4.25;3.08;;;;;;;17.39;81.52;101152.84;5048196;28;20036;-89
2023/08/28 10:16:33;;;;;;;4.75;3.22;;;;;;;17.40;82.46;101149.28;5053196;28;20476;-89
2023/08/28 10:19:07;;;;;;;4.25;3.22;;;;;;;17.41;81.33;101140.47;5048254;28;20028;-89
2023/08/28 10:21:34;;;;;;;3.38;2.90;;;;;;;17.43;81.75;101143.00;5047681;28;20029;-88
2023/08/28 10:24:01;;;;;;;5.65;3.05;;;;;;;17.43;80.26;101141.22;5050987;28;20160;-90
2023/08/28 10:26:26;;;;;;;3.38;2.92;;;;;;;17.39;81.04;101139.69;5048001;28;20086;-87
2023/08/28 10:28:53;;;;;;;4.03;3.03;;;;;;;17.37;81.43;101143.28;5051596;28;20025;-88
2023/08/28 10:31:19;;;;;;;3.97;3.08;;;;;;;17.36;81.83;101147.72;5047085;28;20226;-88
2023/08/28 10:33:46;;;;;;;4.63;3.10;;;;;;;17.33;81.12;101147.88;5047275;28;20071;-90
2023/08/28 10:36:13;;;;;;;3.60;3.20;;;;;;;17.33;82.87;101147.88;5050438;28;20025;-90
2023/08/28 10:38:40;;;;;;;4.22;3.28;;;;;;;17.32;82.52;101140.91;5051569;28;20035;-89
2023/08/28 10:41:06;;;;;;;4.78;3.38;;;;;;;17.34;82.47;101144.31;5048534;28;20025;-88
2023/08/28 10:43:32;;;;;;;3.42;2.92;;;;;;;17.39;80.40;101142.31;5048963;28;20056;-88
2023/08/28 10:46:00;;;;;;;3.40;2.97;;;;;;;17.46;81.28;101142.84;5046409;28;20029;-89
2023/08/28 10:48:26;;;;;;;4.85;3.10;;;;;;;17.51;80.10;101150.50;5047020;28;20029;-90
2023/08/28 10:50:56;;;;;;;4.50;2.60;;;;;;;17.52;79.17;101141.69;5048792;28;20028;-87
2023/08/28 10:53:22;;;;;;;2.88;2.50;;;;;;;17.52;78.24;101137.25;5049317;28;20028;-86
2023/08/28 10:55:52;;;;;;;3.45;2.50;;;;;;;17.52;78.95;101145.16;5049894;28;20040;-86
2023/08/28 10:58:17;;;;;;;2.90;2.40;;;;;;;17.54;80.12;101137.22;5048393;28;20547;-86
2023/08/28 11:00:42;;;;;;;3.33;2.55;;;;;;;17.56;78.71;101135.34;5048809;28;20469;-86
2023/08/28 11:03:09;;;;;;;4.32;2.60;;;;;;;17.57;80.07;101135.25;5047490;28;20029;-87
2023/08/28 11:05:39;;;;;;;3.08;2.55;;;;;;;17.56;79.13;101137.97;5048096;28;20028;-87
2023/08/28 11:08:11;;;;;;;3.42;2.45;;;;;;;17.54;79.87;101143.31;5046528;28;20037;-89
2023/08/28 11:10:44;;;;;;;2.70;2.47;;;;;;;17.53;78.21;101135.50;5048089;28;20389;-87
2023/08/28 11:13:19;;;;;;;2.85;2.35;;;;;;;17.51;78.27;101139.97;5048182;28;20123;-86
2023/08/28 11:15:44;;;;;;;2.92;2.33;;;;;;;17.48;79.87;101124.34;5050247;28;20033;-86
2023/08/28 11:18:23;;;;;;;3.72;2.25;;;;;;;17.45;78.93;101130.63;5048053;28;20051;-90
2023/08/28 11:21:03;;;;;;;3.08;2.30;;;;;;;17.40;78.55;101122.97;5046046;28;20337;-87